createdAt,value
2018-12-22T00:01:52.031Z,7.93
2018-12-22T00:04:21.977Z,7.23
2018-12-22T00:06:51.129Z,7.63
2018-12-22T00:09:19.876Z,8.13
2018-12-22T00:11:48.709Z,9.23
2018-12-22T00:14:17.664Z,8.17
2018-12-22T00:16:46.173Z,8.20
2018-12-22T00:19:15.429Z,7.77
2018-12-22T00:21:44.673Z,7.87
2018-12-22T00:24:13.213Z,7.60
2018-12-22T00:26:41.636Z,8.07
2018-12-22T00:29:11.388Z,7.80
2018-12-22T00:31:39.939Z,7.53
2018-12-22T00:34:08.784Z,9.10
2018-12-22T00:36:36.909Z,7.97
2018-12-22T00:39:05.725Z,8.37
2018-12-22T00:41:34.147Z,7.87
2018-12-22T00:44:03.193Z,9.17
2018-12-22T00:46:32.036Z,7.53
2018-12-22T00:49:01.291Z,8.97
2018-12-22T00:51:29.804Z,8.17
2018-12-22T00:53:59.698Z,8.43
2018-12-22T00:56:28.227Z,7.73
2018-12-22T00:58:56.648Z,7.90
2018-12-22T01:01:25.492Z,7.63
2018-12-22T01:03:54.000Z,8.47
2018-12-22T01:06:22.542Z,7.20
2018-12-22T01:08:50.945Z,8.80
2018-12-22T01:11:19.690Z,7.87
2018-12-22T01:13:48.950Z,8.03
2018-12-22T01:16:17.578Z,8.80
2018-12-22T01:18:47.882Z,8.67
2018-12-22T01:21:16.408Z,7.67
2018-12-22T01:23:45.873Z,7.43
2018-12-22T01:26:16.803Z,7.73
2018-12-22T01:28:46.162Z,8.13
2018-12-22T01:31:16.888Z,8.47
2018-12-22T01:33:47.078Z,8.47
2018-12-22T01:36:17.067Z,8.40
2018-12-22T01:38:45.487Z,8.13
2018-12-22T01:41:13.805Z,8.07
2018-12-22T01:43:41.999Z,8.00
2018-12-22T01:46:10.647Z,8.47
2018-12-22T01:48:39.148Z,8.40
2018-12-22T01:51:07.359Z,8.50
2018-12-22T01:53:36.741Z,8.63
2018-12-22T01:56:07.545Z,8.27
2018-12-22T01:58:37.052Z,7.87
2018-12-22T02:01:05.562Z,8.87
2018-12-22T02:03:35.130Z,8.37
2018-12-22T02:06:03.277Z,8.17
2018-12-22T02:08:33.008Z,7.37
2018-12-22T02:11:01.661Z,8.13
2018-12-22T02:13:30.590Z,8.07
2018-12-22T02:15:58.861Z,8.30
2018-12-22T02:18:28.054Z,8.33
2018-12-22T02:20:57.121Z,9.37
2018-12-22T02:23:25.530Z,8.80
2018-12-22T02:25:54.011Z,9.70
2018-12-22T02:28:22.080Z,9.77
2018-12-22T02:30:50.571Z,8.87
2018-12-22T02:33:19.130Z,8.17
2018-12-22T02:35:47.635Z,8.27
2018-12-22T02:38:16.679Z,8.17
2018-12-22T02:40:45.835Z,8.90
2018-12-22T02:43:13.993Z,8.17
2018-12-22T02:45:42.969Z,7.77
2018-12-22T02:48:11.516Z,8.67
2018-12-22T02:50:40.147Z,9.07
2018-12-22T02:53:08.705Z,8.37
2018-12-22T02:55:37.929Z,8.73
2018-12-22T02:58:05.998Z,8.23
2018-12-22T03:00:34.096Z,9.13
2018-12-22T03:03:02.656Z,8.67
2018-12-22T03:05:32.530Z,7.30
2018-12-22T03:08:02.020Z,8.87
2018-12-22T03:10:30.441Z,8.27
2018-12-22T03:12:59.071Z,9.00
2018-12-22T03:15:27.778Z,8.37
2018-12-22T03:17:56.435Z,7.97
2018-12-22T03:20:24.961Z,8.40
2018-12-22T03:22:53.592Z,9.33
2018-12-22T03:25:22.013Z,8.23
2018-12-22T03:27:50.311Z,7.67
2018-12-22T03:30:18.845Z,6.80
2018-12-22T03:32:48.936Z,8.40
2018-12-22T03:35:17.909Z,6.83
2018-12-22T03:37:46.932Z,6.67
2018-12-22T03:40:15.463Z,7.63
2018-12-22T03:42:43.861Z,7.90
2018-12-22T03:45:12.488Z,6.80
2018-12-22T03:47:40.942Z,7.37
2018-12-22T03:50:09.064Z,6.67
2018-12-22T03:52:37.568Z,7.53
2018-12-22T03:55:06.095Z,6.83
2018-12-22T03:57:36.396Z,7.47
2018-12-22T04:00:06.146Z,6.30
2018-12-22T04:02:35.118Z,5.97
2018-12-22T04:05:05.844Z,6.07
2018-12-22T04:07:34.362Z,6.30
2018-12-22T04:10:04.351Z,5.73
2018-12-22T04:12:32.666Z,5.83
2018-12-22T04:15:01.087Z,5.13
2018-12-22T04:17:31.305Z,5.67
2018-12-22T04:20:00.335Z,5.93
2018-12-22T04:22:29.350Z,5.40
2018-12-22T04:24:59.446Z,5.10
2018-12-22T04:27:28.105Z,4.90
2018-12-22T04:29:56.248Z,5.07
2018-12-22T04:32:24.844Z,4.13
2018-12-22T04:34:52.930Z,5.03
2018-12-22T04:37:22.099Z,4.67
2018-12-22T04:39:51.437Z,3.87
2018-12-22T04:42:20.712Z,3.80
2018-12-22T04:44:50.775Z,3.83
2018-12-22T04:47:19.648Z,3.93
2018-12-22T04:49:49.609Z,3.90
2018-12-22T04:52:19.106Z,3.23
2018-12-22T04:54:49.312Z,3.57
2018-12-22T04:57:17.930Z,4.07
2018-12-22T04:59:46.801Z,3.60
2018-12-22T05:02:14.957Z,3.90
2018-12-22T05:04:43.152Z,4.17
2018-12-22T05:07:12.344Z,4.20
2018-12-22T05:09:40.453Z,3.40
2018-12-22T05:12:09.068Z,3.83
2018-12-22T05:14:37.607Z,3.63
2018-12-22T05:17:06.767Z,4.10
2018-12-22T05:19:34.923Z,3.97
2018-12-22T05:22:05.061Z,4.40
2018-12-22T05:24:35.465Z,4.03
2018-12-22T05:27:06.300Z,4.67
2018-12-22T05:29:35.863Z,4.87
2018-12-22T05:32:04.480Z,3.60
2018-12-22T05:34:34.572Z,5.07
2018-12-22T05:37:03.719Z,5.67
2018-12-22T05:39:32.263Z,6.17
2018-12-22T05:42:00.693Z,5.60
2018-12-22T05:44:29.528Z,4.93
2018-12-22T05:46:58.050Z,5.67
2018-12-22T05:49:26.468Z,4.77
2018-12-22T05:51:54.995Z,5.27
2018-12-22T05:54:23.201Z,5.57
2018-12-22T05:56:51.838Z,4.80
2018-12-22T05:59:20.032Z,5.10
2018-12-22T06:01:49.002Z,4.80
2018-12-22T06:04:18.035Z,5.40
2018-12-22T06:06:46.670Z,4.90
2018-12-22T06:09:15.614Z,5.30
2018-12-22T06:11:44.245Z,4.70
2018-12-22T06:14:14.546Z,4.43
2018-12-22T06:16:43.072Z,4.50
2018-12-22T06:19:11.596Z,4.70
2018-12-22T06:21:40.172Z,3.90
2018-12-22T06:24:08.620Z,4.03
2018-12-22T06:26:37.080Z,3.63
2018-12-22T06:29:07.058Z,3.83
2018-12-22T06:31:35.478Z,3.70
2018-12-22T06:34:03.898Z,3.20
2018-12-22T06:36:32.197Z,3.00
2018-12-22T06:39:00.847Z,2.60
2018-12-22T06:41:29.788Z,2.47
2018-12-22T06:43:58.833Z,2.10
2018-12-22T06:46:27.793Z,2.13
2018-12-22T06:48:56.933Z,2.03
2018-12-22T06:51:25.564Z,1.77
2018-12-22T06:53:54.540Z,1.70
2018-12-22T06:56:23.450Z,1.80
2018-12-22T06:58:51.871Z,1.70
2018-12-22T07:01:20.841Z,1.97
2018-12-22T07:03:49.869Z,1.50
2018-12-22T07:06:18.912Z,1.70
2018-12-22T07:08:47.531Z,1.97
2018-12-22T07:11:15.964Z,1.67
2018-12-22T07:13:44.388Z,2.00
2018-12-22T07:16:12.914Z,1.70
2018-12-22T07:18:42.003Z,1.80
2018-12-22T07:21:10.999Z,1.50
2018-12-22T07:23:39.416Z,1.63
2018-12-22T07:26:07.940Z,1.47
2018-12-22T07:28:37.001Z,1.40
2018-12-22T07:31:05.940Z,1.60
2018-12-22T07:33:34.899Z,1.70
2018-12-22T07:36:05.085Z,1.57
2018-12-22T07:38:33.505Z,1.60
2018-12-22T07:41:02.136Z,1.63
2018-12-22T07:43:31.077Z,2.00
2018-12-22T07:45:59.593Z,2.30
2018-12-22T07:48:28.131Z,1.67
2018-12-22T07:50:57.080Z,1.73
2018-12-22T07:53:25.190Z,2.47
2018-12-22T07:55:53.785Z,3.30
2018-12-22T07:58:23.080Z,3.83
2018-12-22T08:00:52.689Z,2.57
2018-12-22T08:03:23.138Z,2.73
2018-12-22T08:05:52.491Z,2.57
2018-12-22T08:08:23.641Z,3.27
2018-12-22T08:10:52.901Z,2.53
2018-12-22T08:13:21.891Z,3.27
2018-12-22T08:15:50.892Z,3.87
2018-12-22T08:18:19.521Z,2.80
2018-12-22T08:20:49.613Z,3.13
2018-12-22T08:23:18.557Z,3.10
2018-12-22T08:25:46.875Z,2.77
2018-12-22T08:28:15.221Z,2.70
2018-12-22T08:30:44.024Z,3.73
2018-12-22T08:33:13.181Z,3.33
2018-12-22T08:35:41.702Z,2.30
2018-12-22T08:38:11.488Z,2.83
2018-12-22T08:40:39.874Z,2.40
2018-12-22T08:43:08.076Z,2.70
2018-12-22T08:45:37.272Z,2.20
2018-12-22T08:48:06.001Z,2.57
2018-12-22T08:50:34.848Z,2.20
2018-12-22T08:53:03.461Z,3.20
2018-12-22T08:55:32.005Z,2.53
2018-12-22T08:58:00.495Z,2.40
2018-12-22T09:00:30.633Z,2.60
2018-12-22T09:02:59.138Z,4.20
2018-12-22T09:05:29.650Z,3.83
2018-12-22T09:07:58.084Z,2.60
2018-12-22T09:10:26.600Z,2.30
2018-12-22T09:12:55.025Z,2.50
2018-12-22T09:15:23.652Z,3.73
2018-12-22T09:17:52.805Z,2.50
2018-12-22T09:20:22.479Z,2.50
2018-12-22T09:22:51.947Z,2.50
2018-12-22T09:25:19.995Z,3.17
2018-12-22T09:27:49.938Z,2.37
2018-12-22T09:30:18.988Z,2.50
2018-12-22T09:32:47.930Z,2.60
2018-12-22T09:35:16.149Z,2.93
2018-12-22T09:37:45.195Z,2.93
2018-12-22T09:40:13.818Z,2.77
2018-12-22T09:42:44.018Z,2.47
2018-12-22T09:45:12.513Z,2.50
2018-12-22T09:47:43.050Z,2.83
2018-12-22T09:50:11.576Z,2.40
2018-12-22T09:52:39.609Z,2.60
2018-12-22T09:55:08.110Z,2.50
2018-12-22T09:57:36.719Z,3.00
2018-12-22T10:00:08.497Z,2.47
2018-12-22T10:02:38.692Z,2.63
2018-12-22T10:05:09.219Z,2.40
2018-12-22T10:07:38.246Z,2.63
2018-12-22T10:10:09.791Z,2.40
2018-12-22T10:12:39.691Z,2.60
2018-12-22T10:15:09.478Z,2.60
2018-12-22T10:17:40.399Z,2.60
2018-12-22T10:20:08.592Z,2.60
2018-12-22T10:22:37.871Z,2.97
2018-12-22T10:25:06.524Z,2.77
2018-12-22T10:27:35.521Z,2.90
2018-12-22T10:30:05.749Z,2.37
2018-12-22T10:32:34.267Z,3.00
2018-12-22T10:35:03.437Z,3.03
2018-12-22T10:37:31.946Z,2.43
2018-12-22T10:40:01.693Z,2.80
2018-12-22T10:42:30.608Z,2.97
2018-12-22T10:44:59.952Z,2.73
2018-12-22T10:47:28.868Z,2.80
2018-12-22T10:49:57.120Z,2.70
2018-12-22T10:52:26.854Z,2.63
2018-12-22T10:54:55.447Z,2.63
2018-12-22T10:57:24.953Z,2.80
2018-12-22T10:59:54.313Z,2.30
2018-12-22T11:02:23.861Z,2.60
2018-12-22T11:04:53.428Z,2.87
2018-12-22T11:07:21.875Z,2.90
2018-12-22T11:09:50.161Z,2.60
2018-12-22T11:12:18.568Z,2.73
2018-12-22T11:14:48.712Z,2.70
2018-12-22T11:17:17.751Z,2.80
2018-12-22T11:19:46.280Z,3.20
2018-12-22T11:22:16.266Z,2.83
2018-12-22T11:24:44.792Z,2.70
2018-12-22T11:27:14.785Z,2.80
2018-12-22T11:29:44.341Z,2.97
2018-12-22T11:32:14.756Z,2.87
2018-12-22T11:34:43.701Z,3.40
2018-12-22T11:37:12.316Z,3.00
2018-12-22T11:39:40.752Z,3.20
2018-12-22T11:42:11.263Z,3.60
2018-12-22T11:44:40.106Z,2.83
2018-12-22T11:47:12.458Z,2.70
2018-12-22T11:49:41.125Z,3.33
2018-12-22T11:52:10.163Z,3.00
2018-12-22T11:54:38.694Z,2.80
2018-12-22T11:57:07.539Z,3.10
2018-12-22T11:59:36.376Z,3.07
2018-12-22T12:02:09.574Z,3.63
2018-12-22T12:04:35.726Z,2.97
2018-12-22T12:07:04.355Z,3.50
2018-12-22T12:09:32.771Z,2.90
2018-12-22T12:12:01.088Z,3.30
2018-12-22T12:14:30.658Z,3.73
2018-12-22T12:17:00.858Z,3.40
2018-12-22T12:19:29.378Z,3.90
2018-12-22T12:21:58.529Z,4.17
2018-12-22T12:24:27.277Z,4.33
2018-12-22T12:26:55.793Z,3.70
2018-12-22T12:29:25.158Z,3.57
2018-12-22T12:31:54.422Z,3.60
2018-12-22T12:34:22.824Z,3.67
2018-12-22T12:36:51.670Z,3.80
2018-12-22T12:39:20.611Z,3.67
2018-12-22T12:41:48.815Z,3.40
2018-12-22T12:44:17.458Z,3.73
2018-12-22T12:46:46.516Z,5.27
2018-12-22T12:49:15.134Z,5.47
2018-12-22T12:51:43.468Z,5.73
2018-12-22T12:54:13.544Z,5.53
2018-12-22T12:56:42.436Z,5.73
2018-12-22T12:59:10.884Z,4.93
2018-12-22T13:01:39.862Z,4.83
2018-12-22T13:04:08.688Z,4.80
2018-12-22T13:06:38.498Z,4.67
2018-12-22T13:09:07.309Z,3.10
2018-12-22T13:11:36.493Z,2.60
2018-12-22T13:14:05.369Z,2.37
2018-12-22T13:16:34.035Z,2.67
2018-12-22T13:19:03.821Z,2.10
2018-12-22T13:21:32.757Z,2.10
2018-12-22T13:24:02.440Z,1.73
2018-12-22T13:26:36.678Z,1.80
2018-12-22T13:29:03.036Z,1.80
2018-12-22T13:31:32.600Z,2.30
2018-12-22T13:34:01.656Z,2.00
2018-12-22T13:36:34.863Z,2.10
2018-12-22T13:39:02.359Z,2.37
2018-12-22T13:41:32.594Z,2.60
2018-12-22T13:44:02.438Z,2.97
2018-12-22T13:46:30.732Z,3.40
2018-12-22T13:48:59.233Z,4.27
2018-12-22T13:51:27.807Z,3.40
2018-12-22T13:53:57.712Z,3.47
2018-12-22T13:56:26.737Z,3.47
2018-12-22T13:58:55.995Z,2.67
2018-12-22T14:01:25.571Z,2.93
2018-12-22T14:03:54.091Z,2.67
2018-12-22T14:06:22.511Z,3.30
2018-12-22T14:08:50.829Z,2.20
2018-12-22T14:11:19.146Z,2.30
2018-12-22T14:13:47.670Z,1.70
2018-12-22T14:16:16.301Z,2.37
2018-12-22T14:18:45.710Z,1.93
2018-12-22T14:21:14.763Z,2.30
2018-12-22T14:23:45.540Z,2.40
2018-12-22T14:26:14.581Z,2.30
2018-12-22T14:28:43.933Z,2.23
2018-12-22T14:31:12.598Z,2.30
2018-12-22T14:33:41.725Z,2.77
2018-12-22T14:36:10.773Z,2.67
2018-12-22T14:38:39.932Z,3.03
2018-12-22T14:41:08.868Z,3.03
2018-12-22T14:43:37.812Z,3.30
2018-12-22T14:46:06.445Z,3.20
2018-12-22T14:48:34.938Z,4.00
2018-12-22T14:51:03.163Z,4.03
2018-12-22T14:53:33.272Z,4.70
2018-12-22T14:56:01.685Z,4.53
2018-12-22T14:58:31.267Z,4.63
2018-12-22T15:00:59.836Z,5.00
2018-12-22T15:03:29.562Z,5.20
2018-12-22T15:05:58.092Z,5.00
2018-12-22T15:08:26.933Z,5.37
2018-12-22T15:10:55.364Z,4.40
2018-12-22T15:13:25.131Z,4.63
2018-12-22T15:15:53.762Z,3.43
2018-12-22T15:18:22.840Z,4.57
2018-12-22T15:20:51.534Z,3.70
2018-12-22T15:23:20.173Z,3.07
2018-12-22T15:25:49.330Z,3.43
2018-12-22T15:28:17.957Z,5.63
2018-12-22T15:30:46.718Z,4.57
2018-12-22T15:33:14.956Z,6.87
2018-12-22T15:35:43.309Z,5.70
2018-12-22T15:38:12.469Z,6.70
2018-12-22T15:40:42.354Z,5.90
2018-12-22T15:43:10.885Z,6.73
2018-12-22T15:45:40.043Z,6.70
2018-12-22T15:48:08.123Z,7.23
2018-12-22T15:50:40.014Z,6.37
2018-12-22T15:53:09.161Z,4.70
2018-12-22T15:55:37.795Z,3.90
2018-12-22T15:58:06.217Z,4.37
2018-12-22T16:00:35.802Z,4.90
2018-12-22T16:03:04.084Z,5.73
2018-12-22T16:05:32.708Z,7.83
2018-12-22T16:08:01.364Z,6.13
2018-12-22T16:10:31.432Z,6.03
2018-12-22T16:13:00.092Z,4.90
2018-12-22T16:15:29.135Z,6.23
2018-12-22T16:17:58.077Z,4.67
2018-12-22T16:20:27.333Z,5.30
2018-12-22T16:22:58.853Z,4.53
2018-12-22T16:25:27.939Z,4.03
2018-12-22T16:27:58.975Z,3.73
2018-12-22T16:30:30.001Z,8.40
2018-12-22T16:33:01.751Z,3.07
2018-12-22T16:35:30.917Z,3.07
2018-12-22T16:38:00.070Z,2.90
2018-12-22T16:40:29.127Z,3.73
2018-12-22T16:42:58.896Z,3.93
2018-12-22T16:45:28.049Z,3.20
2018-12-22T16:47:57.172Z,3.40
2018-12-22T16:50:27.857Z,3.33
2018-12-22T16:52:56.441Z,3.43
2018-12-22T16:55:25.053Z,3.30
2018-12-22T16:58:01.833Z,3.63
2018-12-22T17:00:34.767Z,3.80
2018-12-22T17:03:10.609Z,3.87
2018-12-22T17:05:34.218Z,5.03
2018-12-22T17:08:03.057Z,5.00
2018-12-22T17:10:33.047Z,4.40
2018-12-22T17:13:03.032Z,5.90
2018-12-22T17:15:33.353Z,5.73
2018-12-22T17:18:02.989Z,4.80
2018-12-22T17:20:33.705Z,4.33
2018-12-22T17:23:10.612Z,4.13
2018-12-22T17:25:40.078Z,4.70
2018-12-22T17:28:11.006Z,4.80
2018-12-22T17:30:39.624Z,4.67
2018-12-22T17:33:08.050Z,4.97
2018-12-22T17:35:36.568Z,4.87
2018-12-22T17:38:06.772Z,5.33
2018-12-22T17:40:39.485Z,5.00
2018-12-22T17:43:08.009Z,6.03
2018-12-22T17:45:36.324Z,5.03
2018-12-22T17:48:05.280Z,5.60
2018-12-22T17:50:34.734Z,5.27
2018-12-22T17:53:03.685Z,5.40
2018-12-22T17:55:32.119Z,5.10
2018-12-22T17:58:00.721Z,5.67
2018-12-22T18:00:29.192Z,5.63
2018-12-22T18:02:57.282Z,4.27
2018-12-22T18:05:26.194Z,4.83
2018-12-22T18:07:56.188Z,4.87
2018-12-22T18:10:25.028Z,4.63
2018-12-22T18:12:54.602Z,5.20
2018-12-22T18:15:24.592Z,6.00
2018-12-22T18:17:53.200Z,5.50
2018-12-22T18:20:22.221Z,6.03
2018-12-22T18:22:50.552Z,5.33
2018-12-22T18:25:20.961Z,5.00
2018-12-22T18:27:51.814Z,5.30
2018-12-22T18:30:21.174Z,5.17
2018-12-22T18:32:50.009Z,5.50
2018-12-22T18:35:18.537Z,5.20
2018-12-22T18:37:47.999Z,5.17
2018-12-22T18:40:19.971Z,4.90
2018-12-22T18:42:48.603Z,4.83
2018-12-22T18:45:16.919Z,4.93
2018-12-22T18:47:45.784Z,4.77
2018-12-22T18:50:24.518Z,4.80
2018-12-22T18:52:53.149Z,4.90
2018-12-22T18:55:23.658Z,4.90
2018-12-22T18:57:52.161Z,5.20
2018-12-22T19:00:23.110Z,4.93
2018-12-22T19:02:51.945Z,4.73
2018-12-22T19:05:21.103Z,5.90
2018-12-22T19:07:49.269Z,5.13
2018-12-22T19:10:20.885Z,5.30
2018-12-22T19:12:49.919Z,4.90
2018-12-22T19:15:19.070Z,5.63
2018-12-22T19:17:48.023Z,6.03
2018-12-22T19:20:24.075Z,6.00
2018-12-22T19:22:54.664Z,4.97
2018-12-22T19:25:25.738Z,4.40
2018-12-22T19:27:54.678Z,5.20
2018-12-22T19:30:24.313Z,5.23
2018-12-22T19:32:52.840Z,5.20
2018-12-22T19:35:22.105Z,6.97
2018-12-22T19:37:51.051Z,4.60
2018-12-22T19:40:19.474Z,4.27
2018-12-22T19:42:48.207Z,3.40
2018-12-22T19:45:17.424Z,3.50
2018-12-22T19:47:46.510Z,3.87
2018-12-22T19:50:15.036Z,3.73
2018-12-22T19:52:43.443Z,4.33
2018-12-22T19:55:11.878Z,3.93
2018-12-22T19:57:40.917Z,4.80
2018-12-22T20:00:09.877Z,5.23
2018-12-22T20:02:39.021Z,5.10
2018-12-22T20:05:08.594Z,5.30
2018-12-22T20:07:37.327Z,5.13
2018-12-22T20:10:06.688Z,5.47
2018-12-22T20:12:40.952Z,5.30
2018-12-22T20:15:09.779Z,5.30
2018-12-22T20:17:37.886Z,4.63
2018-12-22T20:20:07.683Z,4.37
2018-12-22T20:22:36.555Z,5.37
2018-12-22T20:25:05.646Z,4.83
2018-12-22T20:27:34.624Z,4.37
2018-12-22T20:30:05.127Z,4.63
2018-12-22T20:32:35.117Z,4.00
2018-12-22T20:35:04.065Z,16.53
2018-12-22T20:37:32.210Z,4.63
2018-12-22T20:40:01.094Z,6.57
2018-12-22T20:42:29.385Z,5.97
2018-12-22T20:44:58.161Z,5.33
2018-12-22T20:47:28.673Z,5.50
2018-12-22T20:49:58.659Z,6.20
2018-12-22T20:52:27.184Z,6.23
2018-12-22T20:54:56.548Z,7.53
2018-12-22T20:57:25.047Z,6.93
2018-12-22T20:59:53.707Z,7.17
2018-12-22T21:02:21.865Z,7.30
2018-12-22T21:04:50.969Z,6.97
2018-12-22T21:07:19.054Z,7.93
2018-12-22T21:09:49.375Z,7.07
2018-12-22T21:12:17.883Z,7.33
2018-12-22T21:14:46.733Z,6.47
2018-12-22T21:17:15.262Z,4.37
2018-12-22T21:19:43.787Z,5.30
2018-12-22T21:22:13.987Z,5.40
2018-12-22T21:24:43.249Z,5.50
2018-12-22T21:27:12.503Z,6.20
2018-12-22T21:29:41.632Z,6.03
2018-12-22T21:32:10.594Z,5.50
2018-12-22T21:34:40.149Z,6.90
2018-12-22T21:37:08.585Z,6.37
2018-12-22T21:39:37.194Z,6.57
2018-12-22T21:42:05.740Z,6.37
2018-12-22T21:44:34.370Z,5.87
2018-12-22T21:47:03.104Z,6.87
2018-12-22T21:49:32.251Z,6.47
2018-12-22T21:52:01.624Z,6.97
2018-12-22T21:54:31.616Z,6.30
2018-12-22T21:57:00.235Z,6.80
2018-12-22T21:59:29.388Z,7.37
2018-12-22T22:01:57.871Z,7.37
2018-12-22T22:04:26.600Z,6.70
2018-12-22T22:06:55.803Z,5.83
2018-12-22T22:09:24.204Z,6.17
2018-12-22T22:11:52.748Z,6.07
2018-12-22T22:14:20.920Z,6.63
2018-12-22T22:16:51.357Z,7.17
2018-12-22T22:19:19.892Z,6.33
2018-12-22T22:21:48.496Z,5.90
2018-12-22T22:24:17.048Z,6.67
2018-12-22T22:26:45.468Z,6.83
2018-12-22T22:29:13.784Z,6.87
2018-12-22T22:31:42.288Z,7.17
2018-12-22T22:34:10.632Z,7.73
2018-12-22T22:36:39.675Z,7.33
2018-12-22T22:39:08.096Z,8.20
2018-12-22T22:41:38.397Z,7.70
2018-12-22T22:44:08.492Z,6.23
2018-12-22T22:46:36.900Z,7.30
2018-12-22T22:49:05.408Z,7.37
2018-12-22T22:51:34.493Z,7.17
2018-12-22T22:54:03.012Z,6.83
2018-12-22T22:56:34.252Z,6.40
2018-12-22T22:59:03.801Z,7.80
2018-12-22T23:01:32.871Z,7.00
2018-12-22T23:04:01.660Z,6.87
2018-12-22T23:06:29.904Z,6.40
2018-12-22T23:08:58.985Z,6.17
2018-12-22T23:11:27.493Z,6.83
2018-12-22T23:13:55.916Z,7.40
2018-12-22T23:16:26.217Z,7.43
2018-12-22T23:18:54.637Z,6.30
2018-12-22T23:21:23.110Z,6.20
2018-12-22T23:23:51.688Z,6.43
2018-12-22T23:26:21.593Z,6.70
2018-12-22T23:28:51.325Z,6.37
2018-12-22T23:31:19.980Z,7.77
2018-12-22T23:33:48.401Z,6.63
2018-12-22T23:36:16.927Z,7.40
2018-12-22T23:38:47.021Z,6.70
2018-12-22T23:41:16.440Z,6.83
2018-12-22T23:43:46.696Z,7.80
2018-12-22T23:46:14.952Z,7.47
2018-12-22T23:48:43.158Z,7.30
2018-12-22T23:51:11.625Z,6.90
2018-12-22T23:53:40.157Z,7.37
2018-12-22T23:56:09.423Z,6.83
2018-12-22T23:58:37.835Z,7.60
